sensor_id;sensor_type;location;lat;lon;timestamp;temperature;humidity
7654;DHT22;3869;48.406;10.774;2022-10-01T00:01:19;8.30;99.90
7654;DHT22;3869;48.406;10.774;2022-10-01T00:03:47;8.30;99.90
7654;DHT22;3869;48.406;10.774;2022-10-01T00:06:18;8.20;99.90
7654;DHT22;3869;48.406;10.774;2022-10-01T00:08:48;8.10;99.90
7654;DHT22;3869;48.406;10.774;2022-10-01T00:11:19;8.10;99.90
7654;DHT22;3869;48.406;10.774;2022-10-01T00:13:48;8.10;99.90
7654;DHT22;3869;48.406;10.774;2022-10-01T00:16:18;8.10;99.90
7654;DHT22;3869;48.406;10.774;2022-10-01T00:18:47;8.00;99.90
7654;DHT22;3869;48.406;10.774;2022-10-01T00:21:18;8.00;99.90
7654;DHT22;3869;48.406;10.774;2022-10-01T00:23:51;8.00;99.90
7654;DHT22;3869;48.406;10.774;2022-10-01T00:26:22;8.00;99.90
7654;DHT22;3869;48.406;10.774;2022-10-01T00:28:54;8.00;99.90
7654;DHT22;3869;48.406;10.774;2022-10-01T00:31:23;7.90;99.90
7654;DHT22;3869;48.406;10.774;2022-10-01T00:33:51;7.90;99.90
7654;DHT22;3869;48.406;10.774;2022-10-01T00:36:21;7.80;99.90
7654;DHT22;3869;48.406;10.774;2022-10-01T00:38:49;7.80;99.90
7654;DHT22;3869;48.406;10.774;2022-10-01T00:41:17;7.80;99.90
7654;DHT22;3869;48.406;10.774;2022-10-01T00:43:49;7.80;99.90
7654;DHT22;3869;48.406;10.774;2022-10-01T00:46:23;7.80;99.90
7654;DHT22;3869;48.406;10.774;2022-10-01T00:48:55;7.80;99.90
7654;DHT22;3869;48.406;10.774;2022-10-01T00:51:29;7.80;99.90
7654;DHT22;3869;48.406;10.774;2022-10-01T00:54:01;7.80;99.90
7654;DHT22;3869;48.406;10.774;2022-10-01T00:56:31;7.70;99.90
7654;DHT22;3869;48.406;10.774;2022-10-01T00:59:00;7.60;99.90
7654;DHT22;3869;48.406;10.774;2022-10-01T01:01:28;7.50;99.90
7654;DHT22;3869;48.406;10.774;2022-10-01T01:03:57;7.40;99.90
7654;DHT22;3869;48.406;10.774;2022-10-01T01:06:26;7.40;99.90
7654;DHT22;3869;48.406;10.774;2022-10-01T01:08:54;7.50;99.90
7654;DHT22;3869;48.406;10.774;2022-10-01T01:11:29;7.50;99.90
7654;DHT22;3869;48.406;10.774;2022-10-01T01:14:05;7.60;99.90
7654;DHT22;3869;48.406;10.774;2022-10-01T01:16:40;7.60;99.90
7654;DHT22;3869;48.406;10.774;2022-10-01T01:19:16;7.60;99.90
7654;DHT22;3869;48.406;10.774;2022-10-01T01:21:51;7.40;99.90
7654;DHT22;3869;48.406;10.774;2022-10-01T01:24:43;7.40;99.90
7654;DHT22;3869;48.406;10.774;2022-10-01T01:27:27;7.40;99.90
7654;DHT22;3869;48.406;10.774;2022-10-01T01:30:01;7.40;99.90
7654;DHT22;3869;48.406;10.774;2022-10-01T01:32:34;7.40;99.90
7654;DHT22;3869;48.406;10.774;2022-10-01T01:35:10;7.40;99.90
7654;DHT22;3869;48.406;10.774;2022-10-01T01:37:50;7.50;99.90
7654;DHT22;3869;48.406;10.774;2022-10-01T01:40:19;7.50;99.90
7654;DHT22;3869;48.406;10.774;2022-10-01T01:42:49;7.60;99.90
7654;DHT22;3869;48.406;10.774;2022-10-01T01:45:21;7.60;99.90
7654;DHT22;3869;48.406;10.774;2022-10-01T01:47:53;7.60;99.90
7654;DHT22;3869;48.406;10.774;2022-10-01T01:50:23;7.70;99.90
7654;DHT22;3869;48.406;10.774;2022-10-01T01:52:52;7.70;99.90
7654;DHT22;3869;48.406;10.774;2022-10-01T01:55:22;7.80;99.90
7654;DHT22;3869;48.406;10.774;2022-10-01T01:57:52;7.80;99.90
7654;DHT22;3869;48.406;10.774;2022-10-01T02:00:22;7.80;99.90
7654;DHT22;3869;48.406;10.774;2022-10-01T02:02:51;7.80;99.90
7654;DHT22;3869;48.406;10.774;2022-10-01T02:05:22;7.90;99.90
7654;DHT22;3869;48.406;10.774;2022-10-01T02:11:23;8.00;99.90
7654;DHT22;3869;48.406;10.774;2022-10-01T02:14:05;8.00;99.90
7654;DHT22;3869;48.406;10.774;2022-10-01T02:16:46;8.00;99.90
7654;DHT22;3869;48.406;10.774;2022-10-01T02:19:21;8.10;99.90
7654;DHT22;3869;48.406;10.774;2022-10-01T02:21:57;8.10;99.90
7654;DHT22;3869;48.406;10.774;2022-10-01T02:24:32;8.10;99.90
7654;DHT22;3869;48.406;10.774;2022-10-01T02:27:05;8.10;99.90
7654;DHT22;3869;48.406;10.774;2022-10-01T02:29:36;8.20;99.90
7654;DHT22;3869;48.406;10.774;2022-10-01T02:32:06;8.20;99.90
7654;DHT22;3869;48.406;10.774;2022-10-01T02:34:35;8.20;99.90
7654;DHT22;3869;48.406;10.774;2022-10-01T02:37:05;8.20;99.90
7654;DHT22;3869;48.406;10.774;2022-10-01T02:39:35;8.20;99.90
7654;DHT22;3869;48.406;10.774;2022-10-01T02:42:06;8.20;99.90
7654;DHT22;3869;48.406;10.774;2022-10-01T02:44:37;8.20;99.90
7654;DHT22;3869;48.406;10.774;2022-10-01T02:47:14;8.30;99.90
7654;DHT22;3869;48.406;10.774;2022-10-01T02:49:44;8.20;99.90
7654;DHT22;3869;48.406;10.774;2022-10-01T02:52:18;8.20;99.90
7654;DHT22;3869;48.406;10.774;2022-10-01T02:54:52;8.20;99.90
7654;DHT22;3869;48.406;10.774;2022-10-01T02:57:22;8.20;99.90
7654;DHT22;3869;48.406;10.774;2022-10-01T02:59:54;8.20;99.90
7654;DHT22;3869;48.406;10.774;2022-10-01T03:02:25;8.20;99.90
7654;DHT22;3869;48.406;10.774;2022-10-01T03:04:54;8.20;99.90
7654;DHT22;3869;48.406;10.774;2022-10-01T03:07:23;8.20;99.90
7654;DHT22;3869;48.406;10.774;2022-10-01T03:09:51;8.20;99.90
7654;DHT22;3869;48.406;10.774;2022-10-01T03:12:19;8.10;99.90
7654;DHT22;3869;48.406;10.774;2022-10-01T03:14:48;8.10;99.90
7654;DHT22;3869;48.406;10.774;2022-10-01T03:17:16;8.10;99.90
7654;DHT22;3869;48.406;10.774;2022-10-01T03:19:46;8.10;99.90
7654;DHT22;3869;48.406;10.774;2022-10-01T03:22:15;8.10;99.90
7654;DHT22;3869;48.406;10.774;2022-10-01T03:24:44;8.00;99.90
7654;DHT22;3869;48.406;10.774;2022-10-01T03:27:12;8.00;99.90
7654;DHT22;3869;48.406;10.774;2022-10-01T03:29:40;8.00;99.90
7654;DHT22;3869;48.406;10.774;2022-10-01T03:32:08;7.90;99.90
7654;DHT22;3869;48.406;10.774;2022-10-01T03:34:36;7.90;99.90
7654;DHT22;3869;48.406;10.774;2022-10-01T03:37:06;7.90;99.90
7654;DHT22;3869;48.406;10.774;2022-10-01T03:39:34;7.90;99.90
7654;DHT22;3869;48.406;10.774;2022-10-01T03:42:02;7.80;99.90
7654;DHT22;3869;48.406;10.774;2022-10-01T03:44:31;7.90;99.90
7654;DHT22;3869;48.406;10.774;2022-10-01T03:46:59;7.90;99.90
7654;DHT22;3869;48.406;10.774;2022-10-01T03:49:27;7.80;99.90
7654;DHT22;3869;48.406;10.774;2022-10-01T03:51:55;7.80;99.90
7654;DHT22;3869;48.406;10.774;2022-10-01T03:54:24;7.80;99.90
7654;DHT22;3869;48.406;10.774;2022-10-01T03:56:52;7.80;99.90
7654;DHT22;3869;48.406;10.774;2022-10-01T03:59:20;7.80;99.90
7654;DHT22;3869;48.406;10.774;2022-10-01T04:01:48;7.80;99.90
7654;DHT22;3869;48.406;10.774;2022-10-01T04:04:16;7.80;99.90
7654;DHT22;3869;48.406;10.774;2022-10-01T04:06:44;7.80;99.90
7654;DHT22;3869;48.406;10.774;2022-10-01T04:09:12;7.90;99.90
7654;DHT22;3869;48.406;10.774;2022-10-01T04:11:42;7.90;99.90
7654;DHT22;3869;48.406;10.774;2022-10-01T04:14:10;7.90;99.90
7654;DHT22;3869;48.406;10.774;2022-10-01T04:16:38;7.90;99.90
7654;DHT22;3869;48.406;10.774;2022-10-01T04:19:06;7.90;99.90
7654;DHT22;3869;48.406;10.774;2022-10-01T04:21:34;7.90;99.90
7654;DHT22;3869;48.406;10.774;2022-10-01T04:24:03;7.90;99.90
7654;DHT22;3869;48.406;10.774;2022-10-01T04:26:31;7.90;99.90
7654;DHT22;3869;48.406;10.774;2022-10-01T04:29:00;7.90;99.90
7654;DHT22;3869;48.406;10.774;2022-10-01T04:31:28;7.90;99.90
7654;DHT22;3869;48.406;10.774;2022-10-01T04:34:01;7.90;99.90
7654;DHT22;3869;48.406;10.774;2022-10-01T04:36:29;7.90;99.90
7654;DHT22;3869;48.406;10.774;2022-10-01T04:38:57;8.00;99.90
7654;DHT22;3869;48.406;10.774;2022-10-01T04:41:28;8.00;99.90
7654;DHT22;3869;48.406;10.774;2022-10-01T04:43:57;8.10;99.90
7654;DHT22;3869;48.406;10.774;2022-10-01T04:46:28;8.00;99.90
7654;DHT22;3869;48.406;10.774;2022-10-01T04:48:56;8.00;99.90
7654;DHT22;3869;48.406;10.774;2022-10-01T04:51:24;8.00;99.90
7654;DHT22;3869;48.406;10.774;2022-10-01T04:53:52;8.00;99.90
7654;DHT22;3869;48.406;10.774;2022-10-01T04:56:21;8.00;99.90
7654;DHT22;3869;48.406;10.774;2022-10-01T04:58:49;8.00;99.90
7654;DHT22;3869;48.406;10.774;2022-10-01T05:01:17;8.00;99.90
7654;DHT22;3869;48.406;10.774;2022-10-01T05:03:46;8.00;99.90
7654;DHT22;3869;48.406;10.774;2022-10-01T05:06:14;8.10;99.90
7654;DHT22;3869;48.406;10.774;2022-10-01T05:08:42;8.00;99.90
7654;DHT22;3869;48.406;10.774;2022-10-01T05:11:10;8.00;99.90
7654;DHT22;3869;48.406;10.774;2022-10-01T05:13:38;8.00;99.90
7654;DHT22;3869;48.406;10.774;2022-10-01T05:16:07;8.00;99.90
7654;DHT22;3869;48.406;10.774;2022-10-01T05:18:35;8.10;99.90
7654;DHT22;3869;48.406;10.774;2022-10-01T05:21:07;8.10;99.90
7654;DHT22;3869;48.406;10.774;2022-10-01T05:23:35;8.20;99.90
7654;DHT22;3869;48.406;10.774;2022-10-01T05:26:03;8.20;99.90
7654;DHT22;3869;48.406;10.774;2022-10-01T05:28:32;8.20;99.90
7654;DHT22;3869;48.406;10.774;2022-10-01T05:31:01;8.20;99.90
7654;DHT22;3869;48.406;10.774;2022-10-01T05:33:30;8.30;99.90
7654;DHT22;3869;48.406;10.774;2022-10-01T05:36:00;8.30;99.90
7654;DHT22;3869;48.406;10.774;2022-10-01T05:38:30;8.30;99.90
7654;DHT22;3869;48.406;10.774;2022-10-01T05:40:58;8.40;99.90
7654;DHT22;3869;48.406;10.774;2022-10-01T05:43:26;8.40;99.90
7654;DHT22;3869;48.406;10.774;2022-10-01T05:45:54;8.50;99.90
7654;DHT22;3869;48.406;10.774;2022-10-01T05:48:22;8.50;99.90
7654;DHT22;3869;48.406;10.774;2022-10-01T05:50:50;8.60;99.90
7654;DHT22;3869;48.406;10.774;2022-10-01T05:53:18;8.60;99.90
7654;DHT22;3869;48.406;10.774;2022-10-01T05:55:47;8.70;99.90
7654;DHT22;3869;48.406;10.774;2022-10-01T05:58:15;8.80;99.90
7654;DHT22;3869;48.406;10.774;2022-10-01T06:00:43;8.80;99.90
7654;DHT22;3869;48.406;10.774;2022-10-01T06:03:11;8.90;99.90
7654;DHT22;3869;48.406;10.774;2022-10-01T06:05:43;8.90;99.90
7654;DHT22;3869;48.406;10.774;2022-10-01T06:08:11;8.90;99.90
7654;DHT22;3869;48.406;10.774;2022-10-01T06:10:40;9.00;99.90
7654;DHT22;3869;48.406;10.774;2022-10-01T06:13:09;9.00;99.90
7654;DHT22;3869;48.406;10.774;2022-10-01T06:15:44;9.00;99.90
7654;DHT22;3869;48.406;10.774;2022-10-01T06:18:12;9.10;99.90
7654;DHT22;3869;48.406;10.774;2022-10-01T06:20:41;9.10;99.90
7654;DHT22;3869;48.406;10.774;2022-10-01T06:23:10;9.10;99.90
7654;DHT22;3869;48.406;10.774;2022-10-01T06:25:39;9.10;99.90
7654;DHT22;3869;48.406;10.774;2022-10-01T06:28:11;9.10;99.90
7654;DHT22;3869;48.406;10.774;2022-10-01T06:30:40;9.10;99.90
7654;DHT22;3869;48.406;10.774;2022-10-01T06:33:10;9.10;99.90
7654;DHT22;3869;48.406;10.774;2022-10-01T06:35:41;9.10;99.90
7654;DHT22;3869;48.406;10.774;2022-10-01T06:38:10;9.20;99.90
7654;DHT22;3869;48.406;10.774;2022-10-01T06:40:38;9.20;99.90
7654;DHT22;3869;48.406;10.774;2022-10-01T06:43:08;9.30;99.90
7654;DHT22;3869;48.406;10.774;2022-10-01T06:45:37;9.30;99.90
7654;DHT22;3869;48.406;10.774;2022-10-01T06:48:06;9.40;99.90
7654;DHT22;3869;48.406;10.774;2022-10-01T06:50:34;9.40;99.90
7654;DHT22;3869;48.406;10.774;2022-10-01T06:53:02;9.40;99.90
7654;DHT22;3869;48.406;10.774;2022-10-01T06:55:31;9.40;99.90
7654;DHT22;3869;48.406;10.774;2022-10-01T06:58:01;9.50;99.90
7654;DHT22;3869;48.406;10.774;2022-10-01T07:00:32;9.50;99.90
7654;DHT22;3869;48.406;10.774;2022-10-01T07:03:02;9.60;99.90
7654;DHT22;3869;48.406;10.774;2022-10-01T07:05:32;9.60;99.90
7654;DHT22;3869;48.406;10.774;2022-10-01T07:08:00;9.60;99.90
7654;DHT22;3869;48.406;10.774;2022-10-01T07:10:28;9.60;99.90
7654;DHT22;3869;48.406;10.774;2022-10-01T07:13:05;9.70;99.90
7654;DHT22;3869;48.406;10.774;2022-10-01T07:15:35;9.70;99.90
7654;DHT22;3869;48.406;10.774;2022-10-01T07:18:04;9.80;99.90
7654;DHT22;3869;48.406;10.774;2022-10-01T07:20:32;9.80;99.90
7654;DHT22;3869;48.406;10.774;2022-10-01T07:23:06;9.80;99.90
7654;DHT22;3869;48.406;10.774;2022-10-01T07:25:35;9.90;99.90
7654;DHT22;3869;48.406;10.774;2022-10-01T07:28:05;9.90;99.90
7654;DHT22;3869;48.406;10.774;2022-10-01T07:30:35;9.90;99.90
7654;DHT22;3869;48.406;10.774;2022-10-01T07:33:03;10.00;99.90
7654;DHT22;3869;48.406;10.774;2022-10-01T07:35:31;10.00;99.90
7654;DHT22;3869;48.406;10.774;2022-10-01T07:38:02;10.00;99.90
7654;DHT22;3869;48.406;10.774;2022-10-01T07:40:33;10.10;99.90
7654;DHT22;3869;48.406;10.774;2022-10-01T07:43:01;10.10;99.90
7654;DHT22;3869;48.406;10.774;2022-10-01T07:45:29;10.10;99.90
7654;DHT22;3869;48.406;10.774;2022-10-01T07:48:00;10.10;99.90
7654;DHT22;3869;48.406;10.774;2022-10-01T07:50:29;10.10;99.90
7654;DHT22;3869;48.406;10.774;2022-10-01T07:52:57;10.20;99.90
7654;DHT22;3869;48.406;10.774;2022-10-01T07:55:27;10.20;99.90
7654;DHT22;3869;48.406;10.774;2022-10-01T07:57:57;10.20;99.90
7654;DHT22;3869;48.406;10.774;2022-10-01T08:00:28;10.20;99.90
7654;DHT22;3869;48.406;10.774;2022-10-01T08:02:56;10.20;99.90
7654;DHT22;3869;48.406;10.774;2022-10-01T08:05:28;10.30;99.90
7654;DHT22;3869;48.406;10.774;2022-10-01T08:07:57;10.30;99.90
7654;DHT22;3869;48.406;10.774;2022-10-01T08:10:26;10.30;99.90
7654;DHT22;3869;48.406;10.774;2022-10-01T08:12:58;10.40;99.90
7654;DHT22;3869;48.406;10.774;2022-10-01T08:15:27;10.40;99.90
7654;DHT22;3869;48.406;10.774;2022-10-01T08:17:55;10.40;99.90
7654;DHT22;3869;48.406;10.774;2022-10-01T08:20:24;10.50;99.90
7654;DHT22;3869;48.406;10.774;2022-10-01T08:22:52;10.50;99.90
7654;DHT22;3869;48.406;10.774;2022-10-01T08:25:20;10.50;99.90
7654;DHT22;3869;48.406;10.774;2022-10-01T08:27:48;10.50;99.90
7654;DHT22;3869;48.406;10.774;2022-10-01T08:30:16;10.60;99.90
7654;DHT22;3869;48.406;10.774;2022-10-01T08:32:44;10.60;99.90
7654;DHT22;3869;48.406;10.774;2022-10-01T08:35:12;10.70;99.90
7654;DHT22;3869;48.406;10.774;2022-10-01T08:37:41;10.70;99.90
7654;DHT22;3869;48.406;10.774;2022-10-01T08:40:09;10.70;99.90
7654;DHT22;3869;48.406;10.774;2022-10-01T08:42:45;10.70;99.90
7654;DHT22;3869;48.406;10.774;2022-10-01T08:45:19;10.80;99.90
7654;DHT22;3869;48.406;10.774;2022-10-01T08:47:54;10.80;99.90
7654;DHT22;3869;48.406;10.774;2022-10-01T08:50:35;10.90;99.90
7654;DHT22;3869;48.406;10.774;2022-10-01T08:53:11;10.90;99.90
7654;DHT22;3869;48.406;10.774;2022-10-01T08:55:42;10.90;99.90
7654;DHT22;3869;48.406;10.774;2022-10-01T08:58:16;10.90;99.90
7654;DHT22;3869;48.406;10.774;2022-10-01T09:00:47;11.00;99.90
7654;DHT22;3869;48.406;10.774;2022-10-01T09:03:17;11.00;99.90
7654;DHT22;3869;48.406;10.774;2022-10-01T09:05:54;11.00;99.90
7654;DHT22;3869;48.406;10.774;2022-10-01T09:08:35;11.00;99.90
7654;DHT22;3869;48.406;10.774;2022-10-01T09:11:23;11.00;99.90
7654;DHT22;3869;48.406;10.774;2022-10-01T09:14:06;11.00;99.90
7654;DHT22;3869;48.406;10.774;2022-10-01T09:16:45;10.90;99.90
7654;DHT22;3869;48.406;10.774;2022-10-01T09:19:28;10.90;99.90
7654;DHT22;3869;48.406;10.774;2022-10-01T09:22:01;10.90;99.90
7654;DHT22;3869;48.406;10.774;2022-10-01T09:24:42;10.80;99.90
7654;DHT22;3869;48.406;10.774;2022-10-01T09:27:13;10.80;99.90
7654;DHT22;3869;48.406;10.774;2022-10-01T09:29:46;10.80;99.90
7654;DHT22;3869;48.406;10.774;2022-10-01T09:32:18;10.70;99.90
7654;DHT22;3869;48.406;10.774;2022-10-01T09:34:47;10.70;99.90
7654;DHT22;3869;48.406;10.774;2022-10-01T09:37:22;10.60;99.90
7654;DHT22;3869;48.406;10.774;2022-10-01T09:40:02;10.60;99.90
7654;DHT22;3869;48.406;10.774;2022-10-01T09:42:32;10.60;99.90
7654;DHT22;3869;48.406;10.774;2022-10-01T09:45:00;10.50;99.90
7654;DHT22;3869;48.406;10.774;2022-10-01T09:47:31;10.40;99.90
7654;DHT22;3869;48.406;10.774;2022-10-01T09:50:03;10.40;99.90
7654;DHT22;3869;48.406;10.774;2022-10-01T09:52:32;10.40;99.90
7654;DHT22;3869;48.406;10.774;2022-10-01T09:55:05;10.40;99.90
7654;DHT22;3869;48.406;10.774;2022-10-01T09:57:38;10.30;99.90
7654;DHT22;3869;48.406;10.774;2022-10-01T10:00:13;10.20;99.90
7654;DHT22;3869;48.406;10.774;2022-10-01T10:02:43;10.20;99.90
7654;DHT22;3869;48.406;10.774;2022-10-01T10:05:17;10.20;99.90
7654;DHT22;3869;48.406;10.774;2022-10-01T10:07:48;10.20;99.90
7654;DHT22;3869;48.406;10.774;2022-10-01T10:10:20;10.20;99.90
7654;DHT22;3869;48.406;10.774;2022-10-01T10:12:55;10.10;99.90
7654;DHT22;3869;48.406;10.774;2022-10-01T10:15:24;10.20;99.90
7654;DHT22;3869;48.406;10.774;2022-10-01T10:17:53;10.20;99.90
7654;DHT22;3869;48.406;10.774;2022-10-01T10:20:28;10.20;99.90
7654;DHT22;3869;48.406;10.774;2022-10-01T10:23:07;10.20;99.90
7654;DHT22;3869;48.406;10.774;2022-10-01T10:25:36;10.20;99.90
7654;DHT22;3869;48.406;10.774;2022-10-01T10:28:17;10.20;99.90
7654;DHT22;3869;48.406;10.774;2022-10-01T10:30:46;10.20;99.90
7654;DHT22;3869;48.406;10.774;2022-10-01T10:33:15;10.30;99.90
7654;DHT22;3869;48.406;10.774;2022-10-01T10:35:55;10.20;99.90
7654;DHT22;3869;48.406;10.774;2022-10-01T10:38:27;10.20;99.90
7654;DHT22;3869;48.406;10.774;2022-10-01T10:40:58;10.20;99.90
7654;DHT22;3869;48.406;10.774;2022-10-01T10:43:28;10.20;99.90
7654;DHT22;3869;48.406;10.774;2022-10-01T10:46:00;10.10;99.90
7654;DHT22;3869;48.406;10.774;2022-10-01T10:48:31;10.10;99.90
7654;DHT22;3869;48.406;10.774;2022-10-01T10:51:03;10.10;99.90
7654;DHT22;3869;48.406;10.774;2022-10-01T10:53:39;10.10;99.90
7654;DHT22;3869;48.406;10.774;2022-10-01T10:56:17;10.10;99.90
7654;DHT22;3869;48.406;10.774;2022-10-01T10:58:49;10.10;99.90
7654;DHT22;3869;48.406;10.774;2022-10-01T11:01:23;10.10;99.90
7654;DHT22;3869;48.406;10.774;2022-10-01T11:03:55;10.10;99.90
7654;DHT22;3869;48.406;10.774;2022-10-01T11:06:24;10.00;99.90
7654;DHT22;3869;48.406;10.774;2022-10-01T11:08:58;10.00;99.90
7654;DHT22;3869;48.406;10.774;2022-10-01T11:11:41;10.00;99.90
7654;DHT22;3869;48.406;10.774;2022-10-01T11:14:34;10.00;99.90
7654;DHT22;3869;48.406;10.774;2022-10-01T11:17:23;10.00;99.90
7654;DHT22;3869;48.406;10.774;2022-10-01T11:20:04;10.00;99.90
7654;DHT22;3869;48.406;10.774;2022-10-01T11:22:45;10.00;99.90
7654;DHT22;3869;48.406;10.774;2022-10-01T11:25:31;10.00;99.90
7654;DHT22;3869;48.406;10.774;2022-10-01T11:28:13;10.00;99.90
7654;DHT22;3869;48.406;10.774;2022-10-01T11:30:54;10.00;99.90
7654;DHT22;3869;48.406;10.774;2022-10-01T11:33:29;10.00;99.90
7654;DHT22;3869;48.406;10.774;2022-10-01T11:36:02;10.00;99.90
7654;DHT22;3869;48.406;10.774;2022-10-01T11:38:48;10.00;99.90
7654;DHT22;3869;48.406;10.774;2022-10-01T11:41:27;10.00;99.90
7654;DHT22;3869;48.406;10.774;2022-10-01T11:44:01;10.00;99.90
7654;DHT22;3869;48.406;10.774;2022-10-01T11:46:52;10.00;99.90
7654;DHT22;3869;48.406;10.774;2022-10-01T11:49:36;10.00;99.90
7654;DHT22;3869;48.406;10.774;2022-10-01T11:52:14;10.00;99.90
7654;DHT22;3869;48.406;10.774;2022-10-01T11:54:51;10.00;99.90
7654;DHT22;3869;48.406;10.774;2022-10-01T11:57:22;10.10;99.90
7654;DHT22;3869;48.406;10.774;2022-10-01T12:00:12;10.10;99.90
7654;DHT22;3869;48.406;10.774;2022-10-01T12:02:47;10.10;99.90
7654;DHT22;3869;48.406;10.774;2022-10-01T12:05:19;10.20;99.90
7654;DHT22;3869;48.406;10.774;2022-10-01T12:07:52;10.20;99.90
7654;DHT22;3869;48.406;10.774;2022-10-01T12:10:30;10.20;99.90
7654;DHT22;3869;48.406;10.774;2022-10-01T12:13:06;10.20;99.90
7654;DHT22;3869;48.406;10.774;2022-10-01T12:15:42;10.30;99.90
7654;DHT22;3869;48.406;10.774;2022-10-01T12:18:17;10.30;99.90
7654;DHT22;3869;48.406;10.774;2022-10-01T12:20:48;10.30;99.90
7654;DHT22;3869;48.406;10.774;2022-10-01T12:23:20;10.30;99.90
7654;DHT22;3869;48.406;10.774;2022-10-01T12:25:54;10.30;99.90
7654;DHT22;3869;48.406;10.774;2022-10-01T12:28:29;10.40;99.90
7654;DHT22;3869;48.406;10.774;2022-10-01T12:31:05;10.40;99.90
7654;DHT22;3869;48.406;10.774;2022-10-01T12:33:54;10.40;99.90
7654;DHT22;3869;48.406;10.774;2022-10-01T12:36:29;10.40;99.90
7654;DHT22;3869;48.406;10.774;2022-10-01T12:39:12;10.40;99.90
7654;DHT22;3869;48.406;10.774;2022-10-01T12:41:48;10.40;99.90
7654;DHT22;3869;48.406;10.774;2022-10-01T12:44:33;10.40;99.90
7654;DHT22;3869;48.406;10.774;2022-10-01T12:47:31;10.50;99.90
7654;DHT22;3869;48.406;10.774;2022-10-01T12:50:17;10.50;99.90
7654;DHT22;3869;48.406;10.774;2022-10-01T12:52:56;10.50;99.90
7654;DHT22;3869;48.406;10.774;2022-10-01T12:55:50;10.50;99.90
7654;DHT22;3869;48.406;10.774;2022-10-01T12:58:40;10.50;99.90
7654;DHT22;3869;48.406;10.774;2022-10-01T13:01:18;10.50;99.90
7654;DHT22;3869;48.406;10.774;2022-10-01T13:04:23;10.50;99.90
7654;DHT22;3869;48.406;10.774;2022-10-01T13:10:03;10.60;99.90
7654;DHT22;3869;48.406;10.774;2022-10-01T13:12:44;10.60;99.90
7654;DHT22;3869;48.406;10.774;2022-10-01T13:15:20;10.70;99.90
7654;DHT22;3869;48.406;10.774;2022-10-01T13:17:53;10.70;99.90
7654;DHT22;3869;48.406;10.774;2022-10-01T13:20:31;10.70;99.90
7654;DHT22;3869;48.406;10.774;2022-10-01T13:23:07;10.70;99.90
7654;DHT22;3869;48.406;10.774;2022-10-01T13:25:41;10.80;99.90
7654;DHT22;3869;48.406;10.774;2022-10-01T13:28:16;10.80;99.90
7654;DHT22;3869;48.406;10.774;2022-10-01T13:30:55;10.80;99.90
7654;DHT22;3869;48.406;10.774;2022-10-01T13:33:27;10.80;99.90
7654;DHT22;3869;48.406;10.774;2022-10-01T13:35:58;10.80;99.90
7654;DHT22;3869;48.406;10.774;2022-10-01T13:38:38;10.90;99.90
7654;DHT22;3869;48.406;10.774;2022-10-01T13:41:18;10.90;99.90
7654;DHT22;3869;48.406;10.774;2022-10-01T13:43:48;10.90;99.90
7654;DHT22;3869;48.406;10.774;2022-10-01T13:46:24;10.90;99.90
7654;DHT22;3869;48.406;10.774;2022-10-01T13:48:54;10.90;99.90
7654;DHT22;3869;48.406;10.774;2022-10-01T13:51:33;10.90;99.90
7654;DHT22;3869;48.406;10.774;2022-10-01T13:54:02;10.90;99.90
7654;DHT22;3869;48.406;10.774;2022-10-01T13:56:34;11.00;99.90
7654;DHT22;3869;48.406;10.774;2022-10-01T13:59:04;10.90;99.90
7654;DHT22;3869;48.406;10.774;2022-10-01T14:01:46;11.00;99.90
7654;DHT22;3869;48.406;10.774;2022-10-01T14:04:20;11.00;99.90
7654;DHT22;3869;48.406;10.774;2022-10-01T14:06:53;11.00;99.90
7654;DHT22;3869;48.406;10.774;2022-10-01T14:09:25;11.10;99.90
7654;DHT22;3869;48.406;10.774;2022-10-01T14:11:57;11.10;99.90
7654;DHT22;3869;48.406;10.774;2022-10-01T14:14:51;11.10;99.90
7654;DHT22;3869;48.406;10.774;2022-10-01T14:17:37;11.20;99.90
7654;DHT22;3869;48.406;10.774;2022-10-01T14:20:07;11.20;99.90
7654;DHT22;3869;48.406;10.774;2022-10-01T14:22:46;11.20;99.90
7654;DHT22;3869;48.406;10.774;2022-10-01T14:25:28;11.20;99.90
7654;DHT22;3869;48.406;10.774;2022-10-01T14:28:18;11.30;99.90
7654;DHT22;3869;48.406;10.774;2022-10-01T14:30:52;11.30;99.90
7654;DHT22;3869;48.406;10.774;2022-10-01T14:33:40;11.40;99.90
7654;DHT22;3869;48.406;10.774;2022-10-01T14:36:14;11.40;99.90
7654;DHT22;3869;48.406;10.774;2022-10-01T14:38:43;11.40;99.90
7654;DHT22;3869;48.406;10.774;2022-10-01T14:41:19;11.50;99.90
7654;DHT22;3869;48.406;10.774;2022-10-01T14:43:47;11.50;99.90
7654;DHT22;3869;48.406;10.774;2022-10-01T14:46:16;11.50;99.90
7654;DHT22;3869;48.406;10.774;2022-10-01T14:48:56;11.60;99.90
7654;DHT22;3869;48.406;10.774;2022-10-01T14:51:27;11.60;99.90
7654;DHT22;3869;48.406;10.774;2022-10-01T14:53:58;11.60;99.90
7654;DHT22;3869;48.406;10.774;2022-10-01T14:56:27;11.50;99.90
7654;DHT22;3869;48.406;10.774;2022-10-01T14:58:58;11.50;99.90
7654;DHT22;3869;48.406;10.774;2022-10-01T15:01:29;11.60;99.90
7654;DHT22;3869;48.406;10.774;2022-10-01T15:03:57;11.60;99.90
7654;DHT22;3869;48.406;10.774;2022-10-01T15:06:26;11.60;99.90
7654;DHT22;3869;48.406;10.774;2022-10-01T15:09:06;11.60;99.90
7654;DHT22;3869;48.406;10.774;2022-10-01T15:11:38;11.60;99.90
7654;DHT22;3869;48.406;10.774;2022-10-01T15:14:14;11.60;99.90
7654;DHT22;3869;48.406;10.774;2022-10-01T15:16:43;11.60;99.90
7654;DHT22;3869;48.406;10.774;2022-10-01T15:19:13;11.60;99.90
7654;DHT22;3869;48.406;10.774;2022-10-01T15:21:46;11.50;99.90
7654;DHT22;3869;48.406;10.774;2022-10-01T15:24:22;11.50;99.90
7654;DHT22;3869;48.406;10.774;2022-10-01T15:26:52;11.50;99.90
7654;DHT22;3869;48.406;10.774;2022-10-01T15:29:21;11.50;99.90
7654;DHT22;3869;48.406;10.774;2022-10-01T15:31:50;11.50;99.90
7654;DHT22;3869;48.406;10.774;2022-10-01T15:34:21;11.50;99.90
7654;DHT22;3869;48.406;10.774;2022-10-01T15:36:51;11.50;99.90
7654;DHT22;3869;48.406;10.774;2022-10-01T15:39:28;11.50;99.90
7654;DHT22;3869;48.406;10.774;2022-10-01T15:41:57;11.50;99.90
7654;DHT22;3869;48.406;10.774;2022-10-01T15:47:34;11.50;99.90
7654;DHT22;3869;48.406;10.774;2022-10-01T15:50:14;11.50;99.90
7654;DHT22;3869;48.406;10.774;2022-10-01T15:52:49;11.40;99.90
7654;DHT22;3869;48.406;10.774;2022-10-01T15:55:27;11.50;99.90
7654;DHT22;3869;48.406;10.774;2022-10-01T15:58:02;11.50;99.90
7654;DHT22;3869;48.406;10.774;2022-10-01T16:00:38;11.50;99.90
7654;DHT22;3869;48.406;10.774;2022-10-01T16:03:17;11.50;99.90
7654;DHT22;3869;48.406;10.774;2022-10-01T16:05:51;11.40;99.90
7654;DHT22;3869;48.406;10.774;2022-10-01T16:08:23;11.40;99.90
7654;DHT22;3869;48.406;10.774;2022-10-01T16:11:18;11.40;99.90
7654;DHT22;3869;48.406;10.774;2022-10-01T16:13:48;11.40;99.90
7654;DHT22;3869;48.406;10.774;2022-10-01T16:16:22;11.40;99.90
7654;DHT22;3869;48.406;10.774;2022-10-01T16:18:57;11.40;99.90
7654;DHT22;3869;48.406;10.774;2022-10-01T16:21:25;11.40;99.90
7654;DHT22;3869;48.406;10.774;2022-10-01T16:23:54;11.40;99.90
7654;DHT22;3869;48.406;10.774;2022-10-01T16:26:37;11.30;99.90
7654;DHT22;3869;48.406;10.774;2022-10-01T16:29:18;11.30;99.90
7654;DHT22;3869;48.406;10.774;2022-10-01T16:31:49;11.40;99.90
7654;DHT22;3869;48.406;10.774;2022-10-01T16:34:18;11.40;99.90
7654;DHT22;3869;48.406;10.774;2022-10-01T16:36:46;11.40;99.90